CGVLD CYTZ-CNC3
Flight info
| Callsign | CGVLD |
|---|---|
| Flight time | 0h 17m |
| Altitude | 3000 |
| Route | CYTZ/26 VFR NORTHWEST |
| Aircraft | PA24 |
Departure
| Time | 2026-04-22 21:47 |
|---|---|
| Airport | Billy Bishop Toronto City Airport (CYTZ) |
Arrival
| Time | 2026-04-22 22:04 |
|---|---|
| Airport | Brampton-Caledon Airport (CNC3) |
| Time | Latitude | Longitude | Altitude | Speed | Heading |
|---|---|---|---|---|---|
| 2026-04-22 21:47 | 43.61397 | -79.45400 | 1827 ft | 119 kts | 253° |
| 2026-04-22 21:47 | 43.61137 | -79.46482 | 1903 ft | 118 kts | 257° |
| 2026-04-22 21:47 | 43.61048 | -79.47573 | 1969 ft | 113 kts | 289° |
| 2026-04-22 21:47 | 43.61373 | -79.48554 | 1969 ft | 111 kts | 298° |
| 2026-04-22 21:48 | 43.61704 | -79.49505 | 1982 ft | 111 kts | 298° |
| 2026-04-22 21:48 | 43.62024 | -79.50460 | 1988 ft | 111 kts | 297° |
| 2026-04-22 21:48 | 43.62359 | -79.51434 | 1986 ft | 113 kts | 299° |
| 2026-04-22 21:48 | 43.62712 | -79.52414 | 2007 ft | 114 kts | 299° |
| 2026-04-22 21:49 | 43.63085 | -79.53377 | 2022 ft | 114 kts | 302° |
| 2026-04-22 21:49 | 43.63500 | -79.54317 | 2044 ft | 115 kts | 304° |
| 2026-04-22 21:49 | 43.63936 | -79.55267 | 1983 ft | 121 kts | 306° |
| 2026-04-22 21:49 | 43.64422 | -79.56226 | 1901 ft | 121 kts | 307° |
| 2026-04-22 21:50 | 43.64909 | -79.57150 | 1759 ft | 116 kts | 308° |
| 2026-04-22 21:50 | 43.65392 | -79.58045 | 1574 ft | 116 kts | 308° |
| 2026-04-22 21:50 | 43.65863 | -79.58918 | 1462 ft | 107 kts | 309° |
| 2026-04-22 21:50 | 43.66317 | -79.59743 | 1413 ft | 110 kts | 310° |
| 2026-04-22 21:51 | 43.66801 | -79.60559 | 1418 ft | 110 kts | 311° |
| 2026-04-22 21:51 | 43.67283 | -79.61362 | 1476 ft | 108 kts | 311° |
| 2026-04-22 21:51 | 43.67760 | -79.62174 | 1549 ft | 111 kts | 311° |
| 2026-04-22 21:52 | 43.68757 | -79.63827 | 1707 ft | 112 kts | 310° |
| 2026-04-22 21:52 | 43.69201 | -79.64713 | 1753 ft | 115 kts | 303° |
| 2026-04-22 21:52 | 43.69603 | -79.65681 | 1772 ft | 118 kts | 302° |
| 2026-04-22 21:52 | 43.70011 | -79.66675 | 1768 ft | 120 kts | 302° |
| 2026-04-22 21:53 | 43.70421 | -79.67694 | 1755 ft | 122 kts | 301° |
| 2026-04-22 21:53 | 43.70813 | -79.68733 | 1755 ft | 122 kts | 300° |
| 2026-04-22 21:53 | 43.71209 | -79.69783 | 1770 ft | 124 kts | 300° |
| 2026-04-22 21:53 | 43.71604 | -79.70834 | 1771 ft | 123 kts | 299° |
| 2026-04-22 21:54 | 43.71997 | -79.71884 | 1770 ft | 123 kts | 300° |
| 2026-04-22 21:54 | 43.72394 | -79.72932 | 1774 ft | 123 kts | 300° |
| 2026-04-22 21:54 | 43.72796 | -79.73983 | 1774 ft | 124 kts | 300° |
| 2026-04-22 21:54 | 43.73196 | -79.75033 | 1775 ft | 123 kts | 300° |
| 2026-04-22 21:55 | 43.73593 | -79.76082 | 1775 ft | 123 kts | 300° |
| 2026-04-22 21:55 | 43.73987 | -79.77134 | 1775 ft | 123 kts | 300° |
| 2026-04-22 21:55 | 43.74380 | -79.78187 | 1775 ft | 123 kts | 297° |
| 2026-04-22 21:55 | 43.74687 | -79.79294 | 1770 ft | 125 kts | 292° |
| 2026-04-22 21:56 | 43.74971 | -79.80422 | 1765 ft | 123 kts | 291° |
| 2026-04-22 21:56 | 43.75133 | -79.81573 | 1772 ft | 124 kts | 282° |
| 2026-04-22 21:56 | 43.75242 | -79.82764 | 1772 ft | 124 kts | 281° |
| 2026-04-22 21:56 | 43.75368 | -79.83938 | 1744 ft | 124 kts | 283° |
| 2026-04-22 21:57 | 43.75519 | -79.85119 | 1667 ft | 124 kts | 282° |
| 2026-04-22 21:57 | 43.75532 | -79.86262 | 1491 ft | 119 kts | 265° |
| 2026-04-22 21:57 | 43.75256 | -79.87298 | 1423 ft | 109 kts | 252° |
| 2026-04-22 21:57 | 43.74984 | -79.88177 | 1347 ft | 92 kts | 252° |
| 2026-04-22 21:58 | 43.74727 | -79.88986 | 1299 ft | 92 kts | 252° |
| 2026-04-22 21:58 | 43.74670 | -79.89794 | 1351 ft | 80 kts | 298° |
| 2026-04-22 21:58 | 43.75065 | -79.90155 | 1384 ft | 70 kts | 6° |
| 2026-04-22 21:58 | 43.75432 | -79.89728 | 1318 ft | 77 kts | 70° |
| 2026-04-22 21:59 | 43.75510 | -79.88980 | 1158 ft | 76 kts | 73° |
| 2026-04-22 21:59 | 43.75668 | -79.88331 | 1047 ft | 67 kts | 64° |
| 2026-04-22 21:59 | 43.75823 | -79.87742 | 934 ft | 61 kts | 63° |
| 2026-04-22 21:59 | 43.75941 | -79.87258 | 946 ft | 56 kts | 63° |
| 2026-04-22 22:00 | 43.76078 | -79.86714 | 1114 ft | 68 kts | 56° |
| 2026-04-22 22:00 | 43.76302 | -79.86038 | 1301 ft | 87 kts | 63° |
| 2026-04-22 22:00 | 43.76495 | -79.85168 | 1507 ft | 103 kts | 83° |
| 2026-04-22 22:00 | 43.76121 | -79.84276 | 1580 ft | 119 kts | 150° |
| 2026-04-22 22:01 | 43.75358 | -79.84401 | 1618 ft | 113 kts | 223° |
| 2026-04-22 22:01 | 43.74950 | -79.85306 | 1660 ft | 112 kts | 253° |
| 2026-04-22 22:01 | 43.74767 | -79.86341 | 1596 ft | 111 kts | 262° |
| 2026-04-22 22:01 | 43.74635 | -79.87383 | 1518 ft | 107 kts | 264° |
| 2026-04-22 22:02 | 43.74483 | -79.88353 | 1436 ft | 106 kts | 264° |
| 2026-04-22 22:02 | 43.74302 | -79.89323 | 1369 ft | 102 kts | 259° |
| 2026-04-22 22:02 | 43.74182 | -79.90255 | 1365 ft | 94 kts | 285° |
| 2026-04-22 22:02 | 43.74550 | -79.90877 | 1356 ft | 85 kts | 346° |
| 2026-04-22 22:03 | 43.75051 | -79.90621 | 1354 ft | 79 kts | 54° |
| 2026-04-22 22:03 | 43.75242 | -79.89928 | 1281 ft | 75 kts | 65° |
| 2026-04-22 22:03 | 43.75408 | -79.89274 | 1202 ft | 66 kts | 63° |
| 2026-04-22 22:03 | 43.75560 | -79.88701 | 1111 ft | 62 kts | 58° |
| 2026-04-22 22:04 | 43.75719 | -79.88141 | 1005 ft | 63 kts | 65° |
| 2026-04-22 22:04 | 43.75857 | -79.87614 | 928 ft | 47 kts | 70° |
| 2026-04-22 22:04 | 43.75939 | -79.87293 | 918 ft | 22 kts | 72° |
| 2026-04-22 22:04 | 43.75968 | -79.87179 | 915 ft | 16 kts | 71° |
| 2026-04-22 22:05 | 43.76000 | -79.87054 | 910 ft | 11 kts | 71° |
| 2026-04-22 22:05 | 43.76036 | -79.87034 | 910 ft | 9 kts | 268° |
| 2026-04-22 22:05 | 43.76014 | -79.87128 | 913 ft | 11 kts | 249° |
| 2026-04-22 22:05 | 43.75975 | -79.87275 | 919 ft | 20 kts | 250° |
| 2026-04-22 22:06 | 43.75941 | -79.87410 | 921 ft | 9 kts | 264° |
| 2026-04-22 22:06 | 43.75982 | -79.87471 | 920 ft | 10 kts | 316° |
| 2026-04-22 22:06 | 43.75993 | -79.87503 | 922 ft | 1 kts | 219° |
| 2026-04-22 22:06 | 43.75990 | -79.87505 | 925 ft | 0 kts | 220° |
| 2026-04-22 22:08 | 43.75995 | -79.87499 | 922 ft | 1 kts | 219° |
| 2026-04-22 22:08 | 43.75998 | -79.87496 | 922 ft | 0 kts | 217° |
| 2026-04-22 22:09 | 43.75987 | -79.87478 | 922 ft | 9 kts | 130° |
| 2026-04-22 22:09 | 43.75957 | -79.87437 | 920 ft | 4 kts | 137° |
| 2026-04-22 22:09 | 43.75926 | -79.87463 | 920 ft | 14 kts | 247° |
| 2026-04-22 22:09 | 43.75892 | -79.87594 | 926 ft | 14 kts | 250° |
| 2026-04-22 22:10 | 43.75858 | -79.87727 | 932 ft | 17 kts | 250° |
| 2026-04-22 22:10 | 43.75819 | -79.87884 | 938 ft | 12 kts | 250° |
| 2026-04-22 22:10 | 43.75789 | -79.87899 | 940 ft | 11 kts | 119° |
| 2026-04-22 22:10 | 43.75800 | -79.87831 | 936 ft | 11 kts | 69° |
| 2026-04-22 22:11 | 43.75919 | -79.87359 | 931 ft | 82 kts | 66° |
| 2026-04-22 22:11 | 43.76110 | -79.86585 | 1116 ft | 91 kts | 64° |
| 2026-04-22 22:11 | 43.76332 | -79.85726 | 1353 ft | 99 kts | 64° |
| 2026-04-22 22:11 | 43.76535 | -79.84803 | 1574 ft | 107 kts | 84° |
| 2026-04-22 22:12 | 43.76140 | -79.83901 | 1587 ft | 121 kts | 147° |
| 2026-04-22 22:12 | 43.75314 | -79.83903 | 1583 ft | 125 kts | 212° |
| 2026-04-22 22:12 | 43.74848 | -79.84855 | 1551 ft | 120 kts | 251° |
| 2026-04-22 22:12 | 43.74585 | -79.85934 | 1516 ft | 116 kts | 257° |
| 2026-04-22 22:13 | 43.74370 | -79.86969 | 1446 ft | 111 kts | 262° |
| 2026-04-22 22:13 | 43.74227 | -79.87992 | 1397 ft | 106 kts | 265° |
| 2026-04-22 22:13 | 43.74079 | -79.88978 | 1329 ft | 104 kts | 265° |
| 2026-04-22 22:13 | 43.73974 | -79.89943 | 1314 ft | 99 kts | 272° |
| 2026-04-22 22:14 | 43.74217 | -79.90733 | 1325 ft | 88 kts | 328° |
| 2026-04-22 22:14 | 43.74789 | -79.90812 | 1315 ft | 87 kts | 22° |
| 2026-04-22 22:14 | 43.75205 | -79.90255 | 1255 ft | 84 kts | 62° |
| 2026-04-22 22:14 | 43.75357 | -79.89526 | 1168 ft | 72 kts | 69° |
| 2026-04-22 22:15 | 43.75503 | -79.88921 | 1118 ft | 66 kts | 61° |
| 2026-04-22 22:15 | 43.75672 | -79.88318 | 1032 ft | 67 kts | 63° |
| 2026-04-22 22:15 | 43.75816 | -79.87759 | 935 ft | 51 kts | 62° |
| 2026-04-22 22:15 | 43.75933 | -79.87317 | 929 ft | 69 kts | 66° |
| 2026-04-22 22:16 | 43.76095 | -79.86636 | 1148 ft | 82 kts | 63° |
| 2026-04-22 22:16 | 43.76334 | -79.85844 | 1241 ft | 96 kts | 61° |
| 2026-04-22 22:16 | 43.76526 | -79.84942 | 1309 ft | 100 kts | 90° |
| 2026-04-22 22:16 | 43.76165 | -79.84115 | 1299 ft | 106 kts | 144° |
| 2026-04-22 22:17 | 43.75452 | -79.83923 | 1300 ft | 110 kts | 195° |
| 2026-04-22 22:17 | 43.74917 | -79.84587 | 1341 ft | 104 kts | 248° |
| 2026-04-22 22:17 | 43.74662 | -79.85546 | 1326 ft | 108 kts | 259° |
| 2026-04-22 22:17 | 43.74536 | -79.86551 | 1327 ft | 107 kts | 267° |
| 2026-04-22 22:18 | 43.74439 | -79.87586 | 1295 ft | 110 kts | 266° |
| 2026-04-22 22:18 | 43.74273 | -79.88618 | 1301 ft | 111 kts | 259° |
| 2026-04-22 22:18 | 43.74087 | -79.89654 | 1274 ft | 110 kts | 262° |
| 2026-04-22 22:18 | 43.74117 | -79.90636 | 1316 ft | 98 kts | 306° |
| 2026-04-22 22:19 | 43.74646 | -79.91125 | 1320 ft | 94 kts | 358° |
| 2026-04-22 22:19 | 43.75184 | -79.90764 | 1326 ft | 88 kts | 58° |
| 2026-04-22 22:19 | 43.75318 | -79.89895 | 1270 ft | 94 kts | 76° |
| 2026-04-22 22:19 | 43.75457 | -79.89109 | 1177 ft | 73 kts | 65° |
| 2026-04-22 22:20 | 43.75614 | -79.88515 | 1056 ft | 58 kts | 64° |
| 2026-04-22 22:20 | 43.75752 | -79.88014 | 959 ft | 53 kts | 63° |
| 2026-04-22 22:20 | 43.75860 | -79.87603 | 927 ft | 42 kts | 70° |
| 2026-04-22 22:20 | 43.75992 | -79.87026 | 994 ft | 75 kts | 64° |
| 2026-04-22 22:21 | 43.76168 | -79.86283 | 1234 ft | 86 kts | 66° |
| 2026-04-22 22:21 | 43.76381 | -79.85455 | 1512 ft | 95 kts | 64° |
| 2026-04-22 22:21 | 43.76488 | -79.84529 | 1573 ft | 101 kts | 101° |
| 2026-04-22 22:21 | 43.76049 | -79.83733 | 1531 ft | 110 kts | 147° |
| 2026-04-22 22:22 | 43.75316 | -79.83662 | 1544 ft | 110 kts | 203° |
| 2026-04-22 22:22 | 43.74833 | -79.84401 | 1603 ft | 105 kts | 249° |
| 2026-04-22 22:22 | 43.74544 | -79.85337 | 1604 ft | 108 kts | 251° |
| 2026-04-22 22:22 | 43.74257 | -79.86309 | 1585 ft | 108 kts | 253° |
| 2026-04-22 22:23 | 43.73997 | -79.87281 | 1536 ft | 108 kts | 255° |
| 2026-04-22 22:23 | 43.73739 | -79.88264 | 1473 ft | 109 kts | 256° |
| 2026-04-22 22:23 | 43.73494 | -79.89249 | 1435 ft | 107 kts | 256° |
| 2026-04-22 22:23 | 43.73495 | -79.90211 | 1493 ft | 96 kts | 298° |
| 2026-04-22 22:24 | 43.73937 | -79.90852 | 1498 ft | 93 kts | 336° |
| 2026-04-22 22:24 | 43.74574 | -79.90911 | 1481 ft | 96 kts | 15° |
| 2026-04-22 22:24 | 43.75121 | -79.90415 | 1422 ft | 95 kts | 50° |
| 2026-04-22 22:24 | 43.75343 | -79.89618 | 1297 ft | 80 kts | 68° |
| 2026-04-22 22:25 | 43.75492 | -79.88971 | 1174 ft | 62 kts | 62° |
| 2026-04-22 22:25 | 43.75641 | -79.88430 | 1035 ft | 59 kts | 63° |
| 2026-04-22 22:25 | 43.75782 | -79.87899 | 949 ft | 56 kts | 64° |
| 2026-04-22 22:25 | 43.75887 | -79.87498 | 922 ft | 31 kts | 70° |
| 2026-04-22 22:26 | 43.76004 | -79.87008 | 965 ft | 71 kts | 63° |
| 2026-04-22 22:26 | 43.76194 | -79.86334 | 1190 ft | 79 kts | 63° |
| 2026-04-22 22:26 | 43.76394 | -79.85552 | 1417 ft | 93 kts | 64° |
| 2026-04-22 22:26 | 43.76620 | -79.84643 | 1501 ft | 102 kts | 77° |
| 2026-04-22 22:27 | 43.76381 | -79.83722 | 1511 ft | 108 kts | 130° |
| 2026-04-22 22:27 | 43.75687 | -79.83347 | 1544 ft | 113 kts | 181° |
| 2026-04-22 22:27 | 43.74976 | -79.83796 | 1590 ft | 113 kts | 230° |
| 2026-04-22 22:27 | 43.74603 | -79.84729 | 1619 ft | 112 kts | 251° |
| 2026-04-22 22:28 | 43.74348 | -79.85735 | 1586 ft | 110 kts | 255° |
| 2026-04-22 22:28 | 43.74104 | -79.86751 | 1523 ft | 113 kts | 258° |
| 2026-04-22 22:28 | 43.73865 | -79.87769 | 1516 ft | 111 kts | 255° |
| 2026-04-22 22:28 | 43.73585 | -79.88775 | 1477 ft | 113 kts | 254° |
| 2026-04-22 22:29 | 43.73312 | -79.89790 | 1452 ft | 112 kts | 261° |
| 2026-04-22 22:29 | 43.73411 | -79.90789 | 1476 ft | 101 kts | 310° |
| 2026-04-22 22:29 | 43.73969 | -79.91209 | 1478 ft | 95 kts | 2° |
| 2026-04-22 22:29 | 43.74569 | -79.90848 | 1413 ft | 98 kts | 37° |
| 2026-04-22 22:30 | 43.75089 | -79.90247 | 1360 ft | 96 kts | 39° |
| 2026-04-22 22:30 | 43.75392 | -79.89517 | 1276 ft | 81 kts | 71° |
| 2026-04-22 22:30 | 43.75513 | -79.88865 | 1157 ft | 62 kts | 62° |
| 2026-04-22 22:30 | 43.75658 | -79.88342 | 1034 ft | 57 kts | 58° |
| 2026-04-22 22:31 | 43.75795 | -79.87843 | 940 ft | 51 kts | 64° |
| 2026-04-22 22:31 | 43.75905 | -79.87435 | 920 ft | 59 kts | 71° |
| 2026-04-22 22:31 | 43.76080 | -79.86758 | 1042 ft | 81 kts | 64° |
| 2026-04-22 22:31 | 43.76278 | -79.85957 | 1253 ft | 93 kts | 66° |
| 2026-04-22 22:32 | 43.76389 | -79.85045 | 1452 ft | 103 kts | 95° |
| 2026-04-22 22:32 | 43.75888 | -79.84306 | 1590 ft | 119 kts | 167° |
| 2026-04-22 22:32 | 43.75099 | -79.84617 | 1805 ft | 122 kts | 224° |
| 2026-04-22 22:32 | 43.74721 | -79.85667 | 1915 ft | 128 kts | 260° |
| 2026-04-22 22:33 | 43.74536 | -79.86879 | 1933 ft | 128 kts | 263° |
| 2026-04-22 22:33 | 43.74361 | -79.88082 | 1986 ft | 126 kts | 263° |
| 2026-04-22 22:33 | 43.74164 | -79.89276 | 2051 ft | 126 kts | 263° |
| 2026-04-22 22:33 | 43.73954 | -79.90449 | 2177 ft | 126 kts | 262° |
| 2026-04-22 22:34 | 43.73779 | -79.91647 | 2439 ft | 129 kts | 263° |
| 2026-04-22 22:34 | 43.73553 | -79.92833 | 2716 ft | 126 kts | 258° |
| 2026-04-22 22:34 | 43.73293 | -79.94000 | 2988 ft | 127 kts | 257° |
| 2026-04-22 22:34 | 43.73042 | -79.95145 | 3247 ft | 125 kts | 257° |
| 2026-04-22 22:35 | 43.72794 | -79.96307 | 3504 ft | 125 kts | 257° |
| 2026-04-22 22:35 | 43.72504 | -79.97439 | 3727 ft | 127 kts | 248° |
| 2026-04-22 22:35 | 43.72094 | -79.98517 | 3977 ft | 126 kts | 246° |
| 2026-04-22 22:35 | 43.71669 | -79.99585 | 4222 ft | 127 kts | 246° |
| 2026-04-22 22:36 | 43.71261 | -80.00657 | 4482 ft | 127 kts | 246° |
| 2026-04-22 22:36 | 43.70849 | -80.01724 | 4742 ft | 124 kts | 246° |
| 2026-04-22 22:36 | 43.70442 | -80.02767 | 4994 ft | 124 kts | 246° |
| 2026-04-22 22:36 | 43.70034 | -80.03819 | 5225 ft | 125 kts | 246° |
| 2026-04-22 22:37 | 43.69619 | -80.04883 | 5457 ft | 126 kts | 246° |
| 2026-04-22 22:37 | 43.69204 | -80.05960 | 5665 ft | 127 kts | 246° |
| 2026-04-22 22:37 | 43.68786 | -80.07017 | 5906 ft | 124 kts | 246° |
| 2026-04-22 22:37 | 43.68367 | -80.08067 | 6100 ft | 125 kts | 246° |
| 2026-04-22 22:38 | 43.67929 | -80.09110 | 6325 ft | 125 kts | 246° |
| 2026-04-22 22:38 | 43.67487 | -80.10148 | 6479 ft | 128 kts | 246° |
| 2026-04-22 22:38 | 43.67024 | -80.11250 | 6518 ft | 136 kts | 246° |
| 2026-04-22 22:38 | 43.66549 | -80.12382 | 6506 ft | 136 kts | 246° |
| 2026-04-22 22:39 | 43.66079 | -80.13499 | 6499 ft | 133 kts | 246° |
| 2026-04-22 22:39 | 43.65613 | -80.14603 | 6493 ft | 133 kts | 246° |
| 2026-04-22 22:39 | 43.65152 | -80.15701 | 6493 ft | 132 kts | 246° |
| 2026-04-22 22:39 | 43.64688 | -80.16788 | 6496 ft | 131 kts | 242° |
| 2026-04-22 22:40 | 43.64123 | -80.17799 | 6499 ft | 134 kts | 238° |
| 2026-04-22 22:40 | 43.63529 | -80.18799 | 6502 ft | 135 kts | 238° |
| 2026-04-22 22:40 | 43.62938 | -80.19802 | 6504 ft | 135 kts | 238° |
| 2026-04-22 22:40 | 43.62347 | -80.20807 | 6505 ft | 135 kts | 238° |
| 2026-04-22 22:41 | 43.61757 | -80.21808 | 6503 ft | 136 kts | 238° |
| 2026-04-22 22:41 | 43.61153 | -80.22813 | 6502 ft | 135 kts | 233° |
| 2026-04-22 22:41 | 43.60403 | -80.23604 | 6499 ft | 138 kts | 224° |
| 2026-04-22 22:41 | 43.59602 | -80.24352 | 6504 ft | 139 kts | 223° |
| 2026-04-22 22:42 | 43.58794 | -80.25094 | 6401 ft | 140 kts | 223° |
| 2026-04-22 22:42 | 43.57992 | -80.25831 | 6293 ft | 138 kts | 223° |
| 2026-04-22 22:42 | 43.57192 | -80.26571 | 6107 ft | 139 kts | 223° |
| 2026-04-22 22:42 | 43.56401 | -80.27313 | 5872 ft | 136 kts | 223° |
| 2026-04-22 22:43 | 43.55637 | -80.28040 | 5635 ft | 132 kts | 223° |
| 2026-04-22 22:43 | 43.54891 | -80.28761 | 5386 ft | 131 kts | 223° |
| 2026-04-22 22:43 | 43.54204 | -80.29580 | 5135 ft | 131 kts | 232° |
| 2026-04-22 22:43 | 43.53576 | -80.30464 | 4919 ft | 127 kts | 235° |
| 2026-04-22 22:44 | 43.52999 | -80.31382 | 4665 ft | 127 kts | 236° |
| 2026-04-22 22:44 | 43.52434 | -80.32319 | 4434 ft | 126 kts | 238° |
| 2026-04-22 22:44 | 43.51905 | -80.33282 | 4179 ft | 126 kts | 243° |
| 2026-04-22 22:44 | 43.51438 | -80.34290 | 3949 ft | 124 kts | 244° |
| 2026-04-22 22:45 | 43.50996 | -80.35292 | 3729 ft | 124 kts | 244° |
| 2026-04-22 22:45 | 43.50556 | -80.36318 | 3497 ft | 124 kts | 246° |
| 2026-04-22 22:45 | 43.50140 | -80.37358 | 3276 ft | 125 kts | 246° |
| 2026-04-22 22:45 | 43.49729 | -80.38401 | 3047 ft | 122 kts | 246° |
| 2026-04-22 22:46 | 43.49202 | -80.39306 | 2784 ft | 127 kts | 218° |
| 2026-04-22 22:46 | 43.48337 | -80.39558 | 2539 ft | 131 kts | 178° |
| 2026-04-22 22:46 | 43.47480 | -80.39058 | 2301 ft | 140 kts | 142° |
| 2026-04-22 22:46 | 43.46840 | -80.38075 | 2129 ft | 135 kts | 130° |
| 2026-04-22 22:47 | 43.46285 | -80.37092 | 2026 ft | 127 kts | 129° |
| 2026-04-22 22:47 | 43.45766 | -80.36141 | 1918 ft | 121 kts | 127° |
| 2026-04-22 22:47 | 43.45286 | -80.35193 | 1798 ft | 121 kts | 122° |
| 2026-04-22 22:47 | 43.44828 | -80.34199 | 1696 ft | 121 kts | 126° |
| 2026-04-22 22:48 | 43.44125 | -80.33720 | 1675 ft | 108 kts | 186° |
| 2026-04-22 22:48 | 43.43531 | -80.34216 | 1660 ft | 97 kts | 250° |
| 2026-04-22 22:48 | 43.43671 | -80.35008 | 1615 ft | 87 kts | 314° |
| 2026-04-22 22:48 | 43.44101 | -80.35529 | 1536 ft | 81 kts | 313° |
| 2026-04-22 22:49 | 43.44468 | -80.36073 | 1465 ft | 73 kts | 307° |
| 2026-04-22 22:49 | 43.44748 | -80.36599 | 1380 ft | 66 kts | 309° |
| 2026-04-22 22:49 | 43.45009 | -80.37038 | 1299 ft | 55 kts | 311° |
| 2026-04-22 22:49 | 43.45263 | -80.37468 | 1185 ft | 60 kts | 310° |
| 2026-04-22 22:50 | 43.45510 | -80.37877 | 1068 ft | 53 kts | 308° |
| 2026-04-22 22:50 | 43.45692 | -80.38195 | 1033 ft | 29 kts | 309° |
| 2026-04-22 22:50 | 43.45785 | -80.38353 | 1033 ft | 14 kts | 308° |
| 2026-04-22 22:50 | 43.45812 | -80.38430 | 1035 ft | 8 kts | 253° |
| 2026-04-22 22:51 | 43.45789 | -80.38501 | 1036 ft | 5 kts | 245° |
| 2026-04-22 22:51 | 43.45781 | -80.38523 | 1036 ft | 0 kts | 244° |
| 2026-04-22 22:51 | 43.45781 | -80.38525 | 1036 ft | 1 kts | 244° |
| 2026-04-22 22:51 | 43.45766 | -80.38567 | 1036 ft | 8 kts | 246° |
| 2026-04-22 22:52 | 43.45740 | -80.38647 | 1036 ft | 12 kts | 245° |
| 2026-04-22 22:52 | 43.45699 | -80.38767 | 1036 ft | 14 kts | 245° |
| 2026-04-22 22:52 | 43.45657 | -80.38861 | 1035 ft | 10 kts | 191° |
| 2026-04-22 22:52 | 43.45617 | -80.38828 | 1036 ft | 9 kts | 88° |
| 2026-04-22 22:53 | 43.45598 | -80.38810 | 1036 ft | 2 kts | 252° |
| 2026-04-22 22:53 | 43.45597 | -80.38813 | 1036 ft | 0 kts | 243° |